Sweden Valley, Pennsylvania
Current Conditions -  °F | °C
As of 12:56 AM on Wednesday 22 Oct 2014 (Local Time) from KELZ Reporting Station
Moderate Fog Moderate Fog  
Wind Chill: 39°   Ceiling: 100
Heat Index: 43°   Visibility: 0.25mi
Dew Point: 42°   Wind: 7mph
Humidity: 97%   Direction: NA
Pressure: 30.03"   Gusts: NA
Location:  41.7605°N, 77.9728°W
Report Text: KELZ 220456Z AUTO VRB06KT 1/4SM FG VV001 06/06 A3003 RMK AO2 SLP177 T00610056 401220061
Loading
Personal Weather Stations






























Interactive Weather Map
Tropical Storm Tracking
New forecast layout! Learn more

10-Day Weather Forecast

Advertisements
Track Severe Weather on mobile